sensor_id;sensor_type;location;lat;lon;timestamp;pressure;altitude;pressure_sealevel;temperature;humidity
56604;BME280;42486;47.478;19.036;2023-04-23T00:00:28;100007.22;;;8.92;96.04
56604;BME280;42486;47.478;19.036;2023-04-23T00:03:32;100000.97;;;8.94;97.33
56604;BME280;42486;47.478;19.036;2023-04-23T00:06:39;100000.41;;;9.02;97.77
56604;BME280;42486;47.478;19.036;2023-04-23T00:09:44;100003.06;;;8.89;96.92
56604;BME280;42486;47.478;19.036;2023-04-23T00:12:48;100001.97;;;8.80;96.32
56604;BME280;42486;47.478;19.036;2023-04-23T00:15:53;99996.13;;;8.77;97.60
56604;BME280;42486;47.478;19.036;2023-04-23T00:18:58;100001.09;;;8.80;99.85
56604;BME280;42486;47.478;19.036;2023-04-23T00:22:01;100002.59;;;8.71;98.33
56604;BME280;42486;47.478;19.036;2023-04-23T00:25:05;99998.63;;;8.78;98.54
56604;BME280;42486;47.478;19.036;2023-04-23T00:28:09;100002.38;;;8.74;99.26
56604;BME280;42486;47.478;19.036;2023-04-23T00:31:14;100000.72;;;8.73;98.61
56604;BME280;42486;47.478;19.036;2023-04-23T00:34:20;100005.22;;;8.71;99.44
56604;BME280;42486;47.478;19.036;2023-04-23T00:37:23;99995.84;;;8.69;99.16
56604;BME280;42486;47.478;19.036;2023-04-23T00:40:26;99996.50;;;8.59;99.51
56604;BME280;42486;47.478;19.036;2023-04-23T00:43:29;99988.91;;;8.56;99.83
56604;BME280;42486;47.478;19.036;2023-04-23T00:46:33;99996.09;;;8.53;100.00
56604;BME280;42486;47.478;19.036;2023-04-23T00:49:39;99988.50;;;8.50;100.00
56604;BME280;42486;47.478;19.036;2023-04-23T00:52:44;99987.69;;;8.49;100.00
56604;BME280;42486;47.478;19.036;2023-04-23T00:55:48;99989.12;;;8.53;100.00
56604;BME280;42486;47.478;19.036;2023-04-23T00:58:51;99987.25;;;8.55;100.00
56604;BME280;42486;47.478;19.036;2023-04-23T01:01:57;99981.00;;;8.45;100.00
56604;BME280;42486;47.478;19.036;2023-04-23T01:05:02;99985.31;;;8.46;100.00
56604;BME280;42486;47.478;19.036;2023-04-23T01:08:06;99990.72;;;8.43;100.00
56604;BME280;42486;47.478;19.036;2023-04-23T01:11:12;99989.25;;;8.39;100.00
56604;BME280;42486;47.478;19.036;2023-04-23T01:14:18;99988.50;;;8.37;100.00
56604;BME280;42486;47.478;19.036;2023-04-23T01:17:21;99987.69;;;8.36;100.00
56604;BME280;42486;47.478;19.036;2023-04-23T01:20:24;99986.72;;;8.37;100.00
56604;BME280;42486;47.478;19.036;2023-04-23T01:23:28;99986.44;;;8.29;100.00
56604;BME280;42486;47.478;19.036;2023-04-23T01:26:32;99987.47;;;8.27;100.00
56604;BME280;42486;47.478;19.036;2023-04-23T01:29:36;99985.22;;;8.22;100.00
56604;BME280;42486;47.478;19.036;2023-04-23T01:32:42;99988.00;;;8.32;100.00
56604;BME280;42486;47.478;19.036;2023-04-23T01:35:46;99986.66;;;8.26;100.00
56604;BME280;42486;47.478;19.036;2023-04-23T01:38:53;99980.63;;;8.13;100.00
56604;BME280;42486;47.478;19.036;2023-04-23T01:41:58;99978.47;;;8.07;100.00
56604;BME280;42486;47.478;19.036;2023-04-23T01:45:07;99980.56;;;8.02;100.00
56604;BME280;42486;47.478;19.036;2023-04-23T01:48:11;99981.00;;;7.96;100.00
56604;BME280;42486;47.478;19.036;2023-04-23T01:51:15;99981.28;;;7.91;100.00
56604;BME280;42486;47.478;19.036;2023-04-23T01:54:21;99979.00;;;7.86;100.00
56604;BME280;42486;47.478;19.036;2023-04-23T01:57:25;99982.56;;;7.85;100.00
56604;BME280;42486;47.478;19.036;2023-04-23T02:00:28;99977.66;;;7.81;100.00
56604;BME280;42486;47.478;19.036;2023-04-23T02:03:32;99977.97;;;7.89;100.00
56604;BME280;42486;47.478;19.036;2023-04-23T02:06:37;99973.41;;;7.92;100.00
56604;BME280;42486;47.478;19.036;2023-04-23T02:09:43;99970.06;;;7.90;100.00
56604;BME280;42486;47.478;19.036;2023-04-23T02:12:48;99982.25;;;7.90;100.00
56604;BME280;42486;47.478;19.036;2023-04-23T02:15:52;99977.87;;;7.78;100.00
56604;BME280;42486;47.478;19.036;2023-04-23T02:18:55;99968.06;;;7.68;100.00
56604;BME280;42486;47.478;19.036;2023-04-23T02:21:58;99976.31;;;7.62;100.00
56604;BME280;42486;47.478;19.036;2023-04-23T02:25:02;99970.78;;;7.54;100.00
56604;BME280;42486;47.478;19.036;2023-04-23T02:28:05;99971.09;;;7.49;100.00
56604;BME280;42486;47.478;19.036;2023-04-23T02:31:10;99967.56;;;7.50;100.00
56604;BME280;42486;47.478;19.036;2023-04-23T02:34:13;99965.88;;;7.49;100.00
56604;BME280;42486;47.478;19.036;2023-04-23T02:37:16;99960.16;;;7.44;100.00
56604;BME280;42486;47.478;19.036;2023-04-23T02:40:19;99965.47;;;7.43;100.00
56604;BME280;42486;47.478;19.036;2023-04-23T02:43:26;99964.75;;;7.41;100.00
56604;BME280;42486;47.478;19.036;2023-04-23T02:46:29;99966.75;;;7.50;100.00
56604;BME280;42486;47.478;19.036;2023-04-23T02:49:33;99967.66;;;7.49;100.00
56604;BME280;42486;47.478;19.036;2023-04-23T02:52:37;99961.94;;;7.44;100.00
56604;BME280;42486;47.478;19.036;2023-04-23T02:55:40;99960.59;;;7.38;100.00
56604;BME280;42486;47.478;19.036;2023-04-23T02:58:43;99958.09;;;7.37;100.00
56604;BME280;42486;47.478;19.036;2023-04-23T03:01:49;99957.38;;;7.35;100.00
56604;BME280;42486;47.478;19.036;2023-04-23T03:04:54;99961.91;;;7.31;100.00
56604;BME280;42486;47.478;19.036;2023-04-23T03:07:57;99952.47;;;7.30;100.00
56604;BME280;42486;47.478;19.036;2023-04-23T03:11:03;99953.41;;;7.29;100.00
56604;BME280;42486;47.478;19.036;2023-04-23T03:14:10;99956.00;;;7.29;100.00
56604;BME280;42486;47.478;19.036;2023-04-23T03:17:14;99956.53;;;7.34;100.00
56604;BME280;42486;47.478;19.036;2023-04-23T03:20:19;99950.81;;;7.29;100.00
56604;BME280;42486;47.478;19.036;2023-04-23T03:23:22;99945.09;;;7.24;100.00
56604;BME280;42486;47.478;19.036;2023-04-23T03:26:27;99947.03;;;7.20;100.00
56604;BME280;42486;47.478;19.036;2023-04-23T03:29:32;99954.13;;;7.18;100.00
56604;BME280;42486;47.478;19.036;2023-04-23T03:32:36;99948.19;;;7.16;100.00
56604;BME280;42486;47.478;19.036;2023-04-23T03:35:40;99943.28;;;7.12;100.00
56604;BME280;42486;47.478;19.036;2023-04-23T03:38:43;99950.34;;;7.10;100.00
56604;BME280;42486;47.478;19.036;2023-04-23T03:41:47;99958.25;;;7.08;100.00
56604;BME280;42486;47.478;19.036;2023-04-23T03:44:51;99951.28;;;7.09;100.00
56604;BME280;42486;47.478;19.036;2023-04-23T03:47:55;99953.59;;;7.13;100.00
56604;BME280;42486;47.478;19.036;2023-04-23T03:50:58;99959.81;;;7.11;100.00
56604;BME280;42486;47.478;19.036;2023-04-23T03:54:01;99959.69;;;7.12;100.00
56604;BME280;42486;47.478;19.036;2023-04-23T03:57:05;99957.00;;;7.14;100.00
56604;BME280;42486;47.478;19.036;2023-04-23T04:00:08;99963.97;;;7.13;100.00
56604;BME280;42486;47.478;19.036;2023-04-23T04:03:16;99966.38;;;7.16;100.00
56604;BME280;42486;47.478;19.036;2023-04-23T04:06:21;99965.75;;;7.25;100.00
56604;BME280;42486;47.478;19.036;2023-04-23T04:09:24;99972.84;;;7.36;100.00
56604;BME280;42486;47.478;19.036;2023-04-23T04:12:28;99973.50;;;7.40;100.00
56604;BME280;42486;47.478;19.036;2023-04-23T04:15:31;99973.38;;;7.41;100.00
56604;BME280;42486;47.478;19.036;2023-04-23T04:18:34;99978.03;;;7.36;100.00
56604;BME280;42486;47.478;19.036;2023-04-23T04:21:37;99976.28;;;7.37;100.00
56604;BME280;42486;47.478;19.036;2023-04-23T04:24:40;99980.34;;;7.41;100.00
56604;BME280;42486;47.478;19.036;2023-04-23T04:27:44;99972.78;;;7.50;100.00
56604;BME280;42486;47.478;19.036;2023-04-23T04:30:48;99981.50;;;7.62;100.00
56604;BME280;42486;47.478;19.036;2023-04-23T04:33:53;99989.41;;;7.73;100.00
56604;BME280;42486;47.478;19.036;2023-04-23T04:36:57;99985.75;;;7.76;100.00
56604;BME280;42486;47.478;19.036;2023-04-23T04:40:01;99988.56;;;7.86;100.00
56604;BME280;42486;47.478;19.036;2023-04-23T04:43:04;99985.09;;;8.11;100.00
56604;BME280;42486;47.478;19.036;2023-04-23T04:46:09;99991.00;;;9.23;100.00
56604;BME280;42486;47.478;19.036;2023-04-23T04:49:13;99995.28;;;9.93;96.17
56604;BME280;42486;47.478;19.036;2023-04-23T04:52:18;100003.37;;;9.90;96.52
56604;BME280;42486;47.478;19.036;2023-04-23T04:55:23;100004.66;;;10.07;95.65
56604;BME280;42486;47.478;19.036;2023-04-23T04:58:27;100009.91;;;10.19;95.00
56604;BME280;42486;47.478;19.036;2023-04-23T05:01:33;100004.91;;;10.15;96.00
56604;BME280;42486;47.478;19.036;2023-04-23T05:04:37;100006.94;;;10.34;95.61
56604;BME280;42486;47.478;19.036;2023-04-23T05:07:42;100008.91;;;10.76;92.76
56604;BME280;42486;47.478;19.036;2023-04-23T05:10:45;100011.81;;;12.41;83.13
56604;BME280;42486;47.478;19.036;2023-04-23T05:13:49;100026.31;;;15.29;66.83
56604;BME280;42486;47.478;19.036;2023-04-23T05:16:54;100032.75;;;17.56;55.89
56604;BME280;42486;47.478;19.036;2023-04-23T05:20:00;100037.69;;;18.40;53.00
56604;BME280;42486;47.478;19.036;2023-04-23T05:23:03;100037.72;;;18.71;52.16
56604;BME280;42486;47.478;19.036;2023-04-23T05:26:06;100048.06;;;19.66;48.77
56604;BME280;42486;47.478;19.036;2023-04-23T05:29:10;100046.69;;;19.24;50.06
56604;BME280;42486;47.478;19.036;2023-04-23T05:32:20;100036.84;;;18.47;51.57
56604;BME280;42486;47.478;19.036;2023-04-23T05:35:24;100043.81;;;19.34;48.02
56604;BME280;42486;47.478;19.036;2023-04-23T05:38:28;100035.94;;;18.63;50.94
56604;BME280;42486;47.478;19.036;2023-04-23T05:41:31;100035.38;;;17.73;54.24
56604;BME280;42486;47.478;19.036;2023-04-23T05:44:34;100032.84;;;18.12;52.90
56604;BME280;42486;47.478;19.036;2023-04-23T05:47:37;100036.69;;;19.34;46.26
56604;BME280;42486;47.478;19.036;2023-04-23T05:50:41;100058.06;;;20.38;41.38
56604;BME280;42486;47.478;19.036;2023-04-23T05:53:45;100055.19;;;21.42;40.30
56604;BME280;42486;47.478;19.036;2023-04-23T05:56:48;100052.88;;;20.60;38.56
56604;BME280;42486;47.478;19.036;2023-04-23T05:59:53;100051.97;;;19.70;43.96
56604;BME280;42486;47.478;19.036;2023-04-23T06:02:57;100048.56;;;18.92;44.51
56604;BME280;42486;47.478;19.036;2023-04-23T06:06:01;100044.63;;;18.88;41.89
56604;BME280;42486;47.478;19.036;2023-04-23T06:09:05;100042.81;;;18.89;43.48
56604;BME280;42486;47.478;19.036;2023-04-23T06:12:08;100045.84;;;18.30;43.91
56604;BME280;42486;47.478;19.036;2023-04-23T06:15:12;100043.81;;;19.11;40.42
56604;BME280;42486;47.478;19.036;2023-04-23T06:18:15;100059.94;;;19.70;39.46
56604;BME280;42486;47.478;19.036;2023-04-23T06:21:19;100055.94;;;19.74;42.61
56604;BME280;42486;47.478;19.036;2023-04-23T06:24:22;100059.00;;;19.17;43.25
56604;BME280;42486;47.478;19.036;2023-04-23T06:27:26;100057.87;;;19.11;41.12
56604;BME280;42486;47.478;19.036;2023-04-23T06:30:29;100061.63;;;19.17;42.76
56604;BME280;42486;47.478;19.036;2023-04-23T06:33:33;100055.41;;;19.56;41.85
56604;BME280;42486;47.478;19.036;2023-04-23T06:36:39;100066.84;;;20.39;40.22
56604;BME280;42486;47.478;19.036;2023-04-23T06:39:42;100060.81;;;20.00;41.73
56604;BME280;42486;47.478;19.036;2023-04-23T06:42:46;100063.87;;;19.74;40.60
56604;BME280;42486;47.478;19.036;2023-04-23T06:45:50;100068.09;;;19.69;41.45
56604;BME280;42486;47.478;19.036;2023-04-23T06:48:55;100062.59;;;19.70;39.27
56604;BME280;42486;47.478;19.036;2023-04-23T06:51:58;100059.88;;;19.09;40.24
56604;BME280;42486;47.478;19.036;2023-04-23T06:55:01;100058.56;;;18.35;44.54
56604;BME280;42486;47.478;19.036;2023-04-23T06:58:03;100063.28;;;18.56;45.01
56604;BME280;42486;47.478;19.036;2023-04-23T07:01:09;100065.00;;;19.11;42.95
56604;BME280;42486;47.478;19.036;2023-04-23T07:04:12;100063.00;;;22.00;36.10
56604;BME280;42486;47.478;19.036;2023-04-23T07:07:16;100067.28;;;23.65;33.51
56604;BME280;42486;47.478;19.036;2023-04-23T07:10:19;100069.03;;;25.35;30.64
56604;BME280;42486;47.478;19.036;2023-04-23T07:13:21;100081.44;;;27.27;27.64
56604;BME280;42486;47.478;19.036;2023-04-23T07:16:26;100077.97;;;28.56;25.15
56604;BME280;42486;47.478;19.036;2023-04-23T07:19:33;100084.00;;;29.82;22.36
56604;BME280;42486;47.478;19.036;2023-04-23T07:22:36;100079.22;;;30.06;21.35
56604;BME280;42486;47.478;19.036;2023-04-23T07:25:40;100077.28;;;30.02;22.72
56604;BME280;42486;47.478;19.036;2023-04-23T07:28:43;100073.75;;;30.62;21.07
56604;BME280;42486;47.478;19.036;2023-04-23T07:31:48;100073.28;;;30.92;21.19
56604;BME280;42486;47.478;19.036;2023-04-23T07:34:53;100075.06;;;31.36;20.53
56604;BME280;42486;47.478;19.036;2023-04-23T07:37:56;100077.72;;;31.63;21.01
56604;BME280;42486;47.478;19.036;2023-04-23T07:40:59;100071.75;;;31.29;20.04
56604;BME280;42486;47.478;19.036;2023-04-23T07:44:03;100070.56;;;30.43;20.49
56604;BME280;42486;47.478;19.036;2023-04-23T07:47:06;100070.28;;;29.84;21.01
56604;BME280;42486;47.478;19.036;2023-04-23T07:50:09;100076.19;;;29.64;22.15
56604;BME280;42486;47.478;19.036;2023-04-23T07:53:12;100061.59;;;30.82;20.59
56604;BME280;42486;47.478;19.036;2023-04-23T07:56:15;100068.81;;;30.32;20.98
56604;BME280;42486;47.478;19.036;2023-04-23T07:59:19;100070.81;;;31.13;20.78
56604;BME280;42486;47.478;19.036;2023-04-23T08:02:23;100076.50;;;31.86;19.46
56604;BME280;42486;47.478;19.036;2023-04-23T08:05:27;100066.53;;;31.87;19.30
56604;BME280;42486;47.478;19.036;2023-04-23T08:08:31;100066.34;;;29.92;21.08
56604;BME280;42486;47.478;19.036;2023-04-23T08:11:34;100053.87;;;27.19;22.21
56604;BME280;42486;47.478;19.036;2023-04-23T08:14:36;100052.81;;;24.33;29.23
56604;BME280;42486;47.478;19.036;2023-04-23T08:17:40;100047.34;;;23.01;29.57
56604;BME280;42486;47.478;19.036;2023-04-23T08:20:42;100048.50;;;21.74;30.90
56604;BME280;42486;47.478;19.036;2023-04-23T08:23:45;100039.28;;;21.27;32.24
56604;BME280;42486;47.478;19.036;2023-04-23T08:26:49;100039.12;;;20.93;30.96
56604;BME280;42486;47.478;19.036;2023-04-23T08:29:54;100035.41;;;20.87;34.58
56604;BME280;42486;47.478;19.036;2023-04-23T08:32:59;100024.53;;;20.82;31.02
56604;BME280;42486;47.478;19.036;2023-04-23T08:36:03;100025.00;;;20.71;33.29
56604;BME280;42486;47.478;19.036;2023-04-23T08:39:08;100025.00;;;20.71;33.85
56604;BME280;42486;47.478;19.036;2023-04-23T08:42:23;100024.25;;;20.77;34.13
56604;BME280;42486;47.478;19.036;2023-04-23T08:45:29;100023.53;;;20.83;33.79
56604;BME280;42486;47.478;19.036;2023-04-23T08:48:33;100022.53;;;21.05;34.85
56604;BME280;42486;47.478;19.036;2023-04-23T08:51:41;100016.50;;;21.18;33.27
56604;BME280;42486;47.478;19.036;2023-04-23T08:54:47;100019.59;;;21.22;32.82
56604;BME280;42486;47.478;19.036;2023-04-23T08:57:52;100014.63;;;21.12;33.03
56604;BME280;42486;47.478;19.036;2023-04-23T09:00:58;100001.41;;;20.97;32.79
56604;BME280;42486;47.478;19.036;2023-04-23T09:07:07;100001.91;;;21.07;32.40
56604;BME280;42486;47.478;19.036;2023-04-23T09:10:13;100000.44;;;21.26;33.01
56604;BME280;42486;47.478;19.036;2023-04-23T09:13:20;99998.66;;;21.33;31.51
56604;BME280;42486;47.478;19.036;2023-04-23T09:16:25;99995.69;;;21.00;32.77
56604;BME280;42486;47.478;19.036;2023-04-23T09:19:28;100004.59;;;21.14;32.68
56604;BME280;42486;47.478;19.036;2023-04-23T09:22:41;99994.69;;;21.23;32.73
56604;BME280;42486;47.478;19.036;2023-04-23T09:25:49;99991.97;;;21.38;31.06
56604;BME280;42486;47.478;19.036;2023-04-23T09:28:52;99988.84;;;21.34;31.10
56604;BME280;42486;47.478;19.036;2023-04-23T09:32:04;99984.50;;;21.05;30.24
56604;BME280;42486;47.478;19.036;2023-04-23T09:35:09;99994.88;;;21.00;32.81
56604;BME280;42486;47.478;19.036;2023-04-23T09:38:12;99990.38;;;21.22;31.01
56604;BME280;42486;47.478;19.036;2023-04-23T09:41:21;99987.47;;;21.38;29.37
56604;BME280;42486;47.478;19.036;2023-04-23T09:44:29;99974.62;;;21.20;31.23
56604;BME280;42486;47.478;19.036;2023-04-23T09:47:34;99978.13;;;21.21;30.95
56604;BME280;42486;47.478;19.036;2023-04-23T09:50:40;99981.13;;;21.61;30.38
56604;BME280;42486;47.478;19.036;2023-04-23T09:53:42;99980.00;;;21.83;29.82
56604;BME280;42486;47.478;19.036;2023-04-23T09:56:50;99978.28;;;21.97;30.64
56604;BME280;42486;47.478;19.036;2023-04-23T09:59:55;99978.37;;;21.82;31.24
56604;BME280;42486;47.478;19.036;2023-04-23T10:03:14;99968.63;;;21.89;30.62
56604;BME280;42486;47.478;19.036;2023-04-23T10:06:18;99971.34;;;22.03;30.04
56604;BME280;42486;47.478;19.036;2023-04-23T10:09:40;99970.06;;;22.27;28.08
56604;BME280;42486;47.478;19.036;2023-04-23T10:12:45;99962.53;;;22.37;28.93
56604;BME280;42486;47.478;19.036;2023-04-23T10:15:56;99963.91;;;22.26;28.05
56604;BME280;42486;47.478;19.036;2023-04-23T10:19:20;99953.44;;;22.25;27.79
56604;BME280;42486;47.478;19.036;2023-04-23T10:22:28;99946.78;;;22.49;26.98
56604;BME280;42486;47.478;19.036;2023-04-23T10:25:32;99947.53;;;22.29;28.23
56604;BME280;42486;47.478;19.036;2023-04-23T10:28:35;99943.69;;;22.45;28.89
56604;BME280;42486;47.478;19.036;2023-04-23T10:31:39;99937.38;;;22.53;27.52
56604;BME280;42486;47.478;19.036;2023-04-23T10:34:43;99934.25;;;22.36;26.01
56604;BME280;42486;47.478;19.036;2023-04-23T10:37:47;99942.84;;;22.38;26.97
56604;BME280;42486;47.478;19.036;2023-04-23T10:40:50;99936.34;;;22.54;27.06
56604;BME280;42486;47.478;19.036;2023-04-23T10:43:56;99939.69;;;22.96;28.12
56604;BME280;42486;47.478;19.036;2023-04-23T10:47:01;99936.03;;;22.97;26.77
56604;BME280;42486;47.478;19.036;2023-04-23T10:50:20;99930.66;;;22.90;27.10
56604;BME280;42486;47.478;19.036;2023-04-23T10:53:24;99929.06;;;23.09;26.27
56604;BME280;42486;47.478;19.036;2023-04-23T10:56:28;99927.22;;;23.23;26.99
56604;BME280;42486;47.478;19.036;2023-04-23T10:59:33;99923.72;;;23.29;24.13
56604;BME280;42486;47.478;19.036;2023-04-23T11:02:43;99919.81;;;23.32;25.12
56604;BME280;42486;47.478;19.036;2023-04-23T11:05:47;99921.28;;;23.27;24.29
56604;BME280;42486;47.478;19.036;2023-04-23T11:08:50;99919.22;;;22.96;23.93
56604;BME280;42486;47.478;19.036;2023-04-23T11:11:57;99922.88;;;22.69;26.08
56604;BME280;42486;47.478;19.036;2023-04-23T11:15:10;99916.53;;;22.83;25.20
56604;BME280;42486;47.478;19.036;2023-04-23T11:18:13;99924.16;;;23.19;26.41
56604;BME280;42486;47.478;19.036;2023-04-23T11:21:18;99917.59;;;23.22;24.14
56604;BME280;42486;47.478;19.036;2023-04-23T11:24:22;99912.03;;;23.23;24.68
56604;BME280;42486;47.478;19.036;2023-04-23T11:27:25;99907.06;;;22.67;25.65
56604;BME280;42486;47.478;19.036;2023-04-23T11:30:30;99909.75;;;22.87;26.47
56604;BME280;42486;47.478;19.036;2023-04-23T11:33:37;99910.59;;;23.34;25.03
56604;BME280;42486;47.478;19.036;2023-04-23T11:36:41;99902.13;;;23.57;25.89
56604;BME280;42486;47.478;19.036;2023-04-23T11:39:45;99911.97;;;23.77;25.73
56604;BME280;42486;47.478;19.036;2023-04-23T11:42:53;99904.00;;;23.50;24.15
56604;BME280;42486;47.478;19.036;2023-04-23T11:45:56;99907.06;;;23.53;26.52
56604;BME280;42486;47.478;19.036;2023-04-23T11:49:00;99907.00;;;23.87;24.85
56604;BME280;42486;47.478;19.036;2023-04-23T11:52:05;99899.63;;;23.69;25.93
56604;BME280;42486;47.478;19.036;2023-04-23T11:55:08;99893.72;;;23.60;26.33
56604;BME280;42486;47.478;19.036;2023-04-23T11:58:16;99898.00;;;23.81;26.84
56604;BME280;42486;47.478;19.036;2023-04-23T12:01:20;99898.94;;;24.00;25.37
56604;BME280;42486;47.478;19.036;2023-04-23T12:04:23;99882.00;;;24.20;24.92
56604;BME280;42486;47.478;19.036;2023-04-23T12:07:31;99880.56;;;24.24;24.15
56604;BME280;42486;47.478;19.036;2023-04-23T12:10:40;99882.19;;;23.80;23.16
56604;BME280;42486;47.478;19.036;2023-04-23T12:13:46;99880.41;;;23.40;24.55
56604;BME280;42486;47.478;19.036;2023-04-23T12:16:49;99873.22;;;23.54;25.88
56604;BME280;42486;47.478;19.036;2023-04-23T12:19:55;99867.84;;;23.61;26.82
56604;BME280;42486;47.478;19.036;2023-04-23T12:23:02;99861.09;;;23.58;26.09
56604;BME280;42486;47.478;19.036;2023-04-23T12:26:12;99852.97;;;23.98;26.57
56604;BME280;42486;47.478;19.036;2023-04-23T12:29:16;99863.09;;;23.83;26.83
56604;BME280;42486;47.478;19.036;2023-04-23T12:32:23;99845.38;;;23.95;25.77
56604;BME280;42486;47.478;19.036;2023-04-23T12:35:42;99851.25;;;24.10;25.84
56604;BME280;42486;47.478;19.036;2023-04-23T12:38:45;99841.41;;;23.59;25.99
56604;BME280;42486;47.478;19.036;2023-04-23T12:41:49;99837.44;;;23.03;25.99
56604;BME280;42486;47.478;19.036;2023-04-23T12:44:53;99835.75;;;22.49;26.53
56604;BME280;42486;47.478;19.036;2023-04-23T12:47:59;99834.50;;;22.18;27.17
56604;BME280;42486;47.478;19.036;2023-04-23T12:51:02;99828.19;;;22.93;28.69
56604;BME280;42486;47.478;19.036;2023-04-23T12:54:07;99830.84;;;23.19;27.21
56604;BME280;42486;47.478;19.036;2023-04-23T12:57:11;99830.25;;;22.84;27.63
56604;BME280;42486;47.478;19.036;2023-04-23T13:00:14;99823.69;;;23.06;26.67
56604;BME280;42486;47.478;19.036;2023-04-23T13:03:17;99826.03;;;23.48;27.65
56604;BME280;42486;47.478;19.036;2023-04-23T13:06:20;99817.28;;;23.92;26.68
56604;BME280;42486;47.478;19.036;2023-04-23T13:09:23;99818.41;;;23.71;25.82
56604;BME280;42486;47.478;19.036;2023-04-23T13:12:29;99813.25;;;23.05;27.35
56604;BME280;42486;47.478;19.036;2023-04-23T13:15:32;99809.97;;;22.63;28.01
56604;BME280;42486;47.478;19.036;2023-04-23T13:18:34;99803.81;;;22.29;28.58
56604;BME280;42486;47.478;19.036;2023-04-23T13:21:37;99798.59;;;22.01;27.88
56604;BME280;42486;47.478;19.036;2023-04-23T13:24:39;99789.13;;;21.79;28.67
56604;BME280;42486;47.478;19.036;2023-04-23T13:27:43;99781.53;;;21.62;28.55
56604;BME280;42486;47.478;19.036;2023-04-23T13:30:46;99790.72;;;21.60;30.06
56604;BME280;42486;47.478;19.036;2023-04-23T13:33:49;99785.31;;;21.94;27.38
56604;BME280;42486;47.478;19.036;2023-04-23T13:36:51;99774.94;;;22.33;27.48
56604;BME280;42486;47.478;19.036;2023-04-23T13:39:54;99777.19;;;22.49;26.47
56604;BME280;42486;47.478;19.036;2023-04-23T13:42:59;99767.34;;;22.50;27.23
56604;BME280;42486;47.478;19.036;2023-04-23T13:46:01;99762.88;;;22.63;25.78
56604;BME280;42486;47.478;19.036;2023-04-23T13:49:05;99759.78;;;22.47;26.15
56604;BME280;42486;47.478;19.036;2023-04-23T13:52:07;99758.72;;;22.14;26.89
56604;BME280;42486;47.478;19.036;2023-04-23T13:55:10;99752.47;;;21.67;27.18
56604;BME280;42486;47.478;19.036;2023-04-23T13:58:13;99753.34;;;21.33;27.85
56604;BME280;42486;47.478;19.036;2023-04-23T14:01:16;99755.75;;;21.21;29.50
56604;BME280;42486;47.478;19.036;2023-04-23T14:04:19;99748.34;;;21.10;28.75
56604;BME280;42486;47.478;19.036;2023-04-23T14:07:25;99744.31;;;21.21;29.59
56604;BME280;42486;47.478;19.036;2023-04-23T14:10:28;99743.63;;;21.53;27.67
56604;BME280;42486;47.478;19.036;2023-04-23T14:13:35;99737.38;;;21.74;28.52
56604;BME280;42486;47.478;19.036;2023-04-23T14:16:38;99742.13;;;22.06;27.50
56604;BME280;42486;47.478;19.036;2023-04-23T14:19:41;99743.16;;;22.11;27.16
56604;BME280;42486;47.478;19.036;2023-04-23T14:22:48;99736.63;;;22.20;27.11
56604;BME280;42486;47.478;19.036;2023-04-23T14:26:03;99732.97;;;22.28;27.69
56604;BME280;42486;47.478;19.036;2023-04-23T14:29:17;99731.66;;;21.91;28.42
56604;BME280;42486;47.478;19.036;2023-04-23T14:32:20;99729.78;;;21.71;28.17
56604;BME280;42486;47.478;19.036;2023-04-23T14:35:22;99727.66;;;21.40;27.32
56604;BME280;42486;47.478;19.036;2023-04-23T14:38:42;99715.44;;;21.11;29.82
56604;BME280;42486;47.478;19.036;2023-04-23T14:41:45;99722.97;;;21.07;29.82
56604;BME280;42486;47.478;19.036;2023-04-23T14:44:48;99717.03;;;21.05;29.47
56604;BME280;42486;47.478;19.036;2023-04-23T14:47:53;99709.13;;;21.12;28.47
56604;BME280;42486;47.478;19.036;2023-04-23T14:50:57;99712.66;;;21.26;29.75
56604;BME280;42486;47.478;19.036;2023-04-23T14:54:02;99712.34;;;21.49;28.40
56604;BME280;42486;47.478;19.036;2023-04-23T14:57:04;99707.47;;;21.72;27.69
56604;BME280;42486;47.478;19.036;2023-04-23T15:00:07;99709.31;;;21.59;27.18
56604;BME280;42486;47.478;19.036;2023-04-23T15:03:14;99708.25;;;21.46;27.22
56604;BME280;42486;47.478;19.036;2023-04-23T15:06:18;99705.41;;;21.54;27.84
56604;BME280;42486;47.478;19.036;2023-04-23T15:09:21;99707.91;;;21.63;27.26
56604;BME280;42486;47.478;19.036;2023-04-23T15:15:50;99692.25;;;21.33;29.17
56604;BME280;42486;47.478;19.036;2023-04-23T15:18:57;99698.09;;;21.22;27.52
56604;BME280;42486;47.478;19.036;2023-04-23T15:22:00;99700.53;;;21.17;28.44
56604;BME280;42486;47.478;19.036;2023-04-23T15:25:03;99697.09;;;21.23;29.50
56604;BME280;42486;47.478;19.036;2023-04-23T15:28:06;99695.72;;;21.33;29.19
56604;BME280;42486;47.478;19.036;2023-04-23T15:31:10;99697.41;;;21.41;27.94
56604;BME280;42486;47.478;19.036;2023-04-23T15:34:13;99691.47;;;21.39;28.92
56604;BME280;42486;47.478;19.036;2023-04-23T15:37:16;99694.06;;;21.32;27.94
56604;BME280;42486;47.478;19.036;2023-04-23T15:40:24;99685.84;;;21.27;28.55
56604;BME280;42486;47.478;19.036;2023-04-23T15:43:30;99683.59;;;21.24;29.20
56604;BME280;42486;47.478;19.036;2023-04-23T15:46:33;99680.94;;;21.24;28.57
56604;BME280;42486;47.478;19.036;2023-04-23T15:49:38;99682.38;;;21.20;28.08
56604;BME280;42486;47.478;19.036;2023-04-23T15:52:42;99676.19;;;21.06;28.53
56604;BME280;42486;47.478;19.036;2023-04-23T15:55:46;99676.78;;;21.02;28.30
56604;BME280;42486;47.478;19.036;2023-04-23T15:58:55;99674.88;;;20.89;28.84
56604;BME280;42486;47.478;19.036;2023-04-23T16:01:59;99673.84;;;20.83;29.44
56604;BME280;42486;47.478;19.036;2023-04-23T16:05:03;99664.41;;;20.81;29.02
56604;BME280;42486;47.478;19.036;2023-04-23T16:08:07;99665.22;;;20.75;28.95